This is the latest recevied weather packets stored in our database for station/object DG7FDL-13. If no packets are shown the sender has not sent any weather packets the latest 10 day(s).
| Time | Temp. | Humidity | Pressure | Rain* | Wind** | Luminosity | Snow |
|---|---|---|---|---|---|---|---|
| 1778147526 | 10.56° C | 93% | 1013.8 hPa | 0 mm | - | - | - |
| 1778144523 | 10° C | 98% | 1013.2 hPa | 0 mm | - | - | - |
| 1778142631 | 10° C | - | 1012.9 hPa | 0 mm | - | - | - |
| 1778141479 | 9.44° C | - | 1012.8 hPa | 0.51 mm | - | - | - |
| 1778139175 | 9.44° C | - | 1012.3 hPa | 0.51 mm | - | - | - |
| 1778137947 | 9.44° C | - | 1012.2 hPa | 0.25 mm | - | - | - |
| 1778136103 | 9.44° C | - | 1011.9 hPa | 0 mm | - | - | - |
| 1778135479 | 9.44° C | 100% | 1011.8 hPa | 0 mm | - | - | - |
| 1778131255 | 8.89° C | 97% | 1011.1 hPa | 0 mm | - | - | - |
| 1778127031 | 8.89° C | 96% | 1010.3 hPa | 0 mm | - | - | - |
| 1778123479 | 9.44° C | 96% | 1010.1 hPa | 0 mm | - | - | - |
| 1778120503 | 9.44° C | 98% | 1010 hPa | 0 mm | - | - | - |
| 1778119879 | 8.89° C | 99% | 1010 hPa | 0 mm | - | - | - |
| 1778117719 | 9.44° C | 99% | 1009.7 hPa | 0 mm | - | - | - |
| 1778114427 | 9.44° C | 97% | 1009.4 hPa | 0 mm | - | - | - |
| 1778109127 | 10.56° C | 93% | 1009 hPa | 0 mm | - | - | - |
| 1778108455 | 10.56° C | 93% | 1008.9 hPa | 0 mm | - | - | - |
| 1778105479 | 10.56° C | 92% | 1008.8 hPa | 0 mm | - | - | - |
| 1778104327 | 10.56° C | 92% | 1008.6 hPa | 0 mm | - | - | - |
| 1778103099 | 10.56° C | 91% | 1008.5 hPa | 0 mm | - | - | - |
| 1778102552 | 10.56° C | 91% | 1008.6 hPa | 0 mm | - | - | - |
| 1778101302 | 11.11° C | 90% | 1008.5 hPa | 0 mm | - | - | - |
| 1778099383 | 11.11° C | 92% | 1008.4 hPa | 0 mm | - | - | - |
| 1778098732 | 11.11° C | 93% | 1008.3 hPa | 0 mm | - | - | - |
| 1778094651 | 11.67° C | 92% | 1007.5 hPa | 0 mm | - | - | - |
* Rain latest hour (hover to see other rain measurements)
** Current wind speed in m/s (hover to see current wind gust speed)